<?xml version="1.0" encoding="UTF-8" standalone="no" ?>
<gpx xmlns="http://www.topografix.com/GPX/1/1" xmlns:xsi="http://www.w3.org/2001/XMLSchema-instance" xsi:schemaLocation="http://www.topografix.com/GPX/1/1 http://www.topografix.com/GPX/1/1/gpx.xsd" version="1.1" creator="VisuGPX - https://www.visugpx.com">
  <metadata>
    <name>Gussignies </name>
    <desc><![CDATA[Circuit glissant sous la pluie et la bonne humeur.]]></desc>
  </metadata>
  <trk>
    <name><![CDATA[GHUSSIGNIE6:21:56 PM]]></name>
    <trkseg>
      <trkpt lat="50.33796" lon="3.74271">
        <ele>108.29</ele>
        <time>2015-08-27T07:34:27Z</time>
      </trkpt>
      <trkpt lat="50.33888" lon="3.74347">
        <ele>98.19</ele>
        <time>2015-08-27T07:36:49Z</time>
      </trkpt>
      <trkpt lat="50.33972" lon="3.7444">
        <ele>105.88</ele>
        <time>2015-08-27T07:38:21Z</time>
      </trkpt>
      <trkpt lat="50.34039" lon="3.74554">
        <ele>106.36</ele>
        <time>2015-08-27T07:39:54Z</time>
      </trkpt>
      <trkpt lat="50.34088" lon="3.74668">
        <ele>110.69</ele>
        <time>2015-08-27T07:41:09Z</time>
      </trkpt>
      <trkpt lat="50.34119" lon="3.74774">
        <ele>115.5</ele>
        <time>2015-08-27T07:42:14Z</time>
      </trkpt>
      <trkpt lat="50.34147" lon="3.74898">
        <ele>114.53</ele>
        <time>2015-08-27T07:43:26Z</time>
      </trkpt>
      <trkpt lat="50.34166" lon="3.75028">
        <ele>111.65</ele>
        <time>2015-08-27T07:44:45Z</time>
      </trkpt>
      <trkpt lat="50.34164" lon="3.75162">
        <ele>118.38</ele>
        <time>2015-08-27T07:46:03Z</time>
      </trkpt>
      <trkpt lat="50.3416" lon="3.75297">
        <ele>121.74</ele>
        <time>2015-08-27T07:47:23Z</time>
      </trkpt>
      <trkpt lat="50.34197" lon="3.75417">
        <ele>122.22</ele>
        <time>2015-08-27T07:48:40Z</time>
      </trkpt>
      <trkpt lat="50.34213" lon="3.75551">
        <ele>123.19</ele>
        <time>2015-08-27T07:49:57Z</time>
      </trkpt>
      <trkpt lat="50.34191" lon="3.75678">
        <ele>127.03</ele>
        <time>2015-08-27T07:51:19Z</time>
      </trkpt>
      <trkpt lat="50.34171" lon="3.75806">
        <ele>125.59</ele>
        <time>2015-08-27T07:52:42Z</time>
      </trkpt>
      <trkpt lat="50.34149" lon="3.75952">
        <ele>123.67</ele>
        <time>2015-08-27T07:54:06Z</time>
      </trkpt>
      <trkpt lat="50.34148" lon="3.76092">
        <ele>123.67</ele>
        <time>2015-08-27T07:55:32Z</time>
      </trkpt>
      <trkpt lat="50.34108" lon="3.76233">
        <ele>124.63</ele>
        <time>2015-08-27T07:57:00Z</time>
      </trkpt>
      <trkpt lat="50.34066" lon="3.76353">
        <ele>123.19</ele>
        <time>2015-08-27T07:58:16Z</time>
      </trkpt>
      <trkpt lat="50.34017" lon="3.76453">
        <ele>125.59</ele>
        <time>2015-08-27T07:59:31Z</time>
      </trkpt>
      <trkpt lat="50.33994" lon="3.76589">
        <ele>127.03</ele>
        <time>2015-08-27T08:00:47Z</time>
      </trkpt>
      <trkpt lat="50.33964" lon="3.76709">
        <ele>126.07</ele>
        <time>2015-08-27T08:01:59Z</time>
      </trkpt>
      <trkpt lat="50.3396" lon="3.76815">
        <ele>127.51</ele>
        <time>2015-08-27T08:05:03Z</time>
      </trkpt>
      <trkpt lat="50.3396" lon="3.76947">
        <ele>125.59</ele>
        <time>2015-08-27T08:06:17Z</time>
      </trkpt>
      <trkpt lat="50.33971" lon="3.77094">
        <ele>127.03</ele>
        <time>2015-08-27T08:07:41Z</time>
      </trkpt>
      <trkpt lat="50.33987" lon="3.77231">
        <ele>125.11</ele>
        <time>2015-08-27T08:08:53Z</time>
      </trkpt>
      <trkpt lat="50.3402" lon="3.77364">
        <ele>122.71</ele>
        <time>2015-08-27T08:10:15Z</time>
      </trkpt>
      <trkpt lat="50.34053" lon="3.77475">
        <ele>135.68</ele>
        <time>2015-08-27T08:11:29Z</time>
      </trkpt>
      <trkpt lat="50.34008" lon="3.77515">
        <ele>133.76</ele>
        <time>2015-08-27T08:12:49Z</time>
      </trkpt>
      <trkpt lat="50.33926" lon="3.77478">
        <ele>128.47</ele>
        <time>2015-08-27T08:14:15Z</time>
      </trkpt>
      <trkpt lat="50.33844" lon="3.77431">
        <ele>127.99</ele>
        <time>2015-08-27T08:15:19Z</time>
      </trkpt>
      <trkpt lat="50.33775" lon="3.77503">
        <ele>123.19</ele>
        <time>2015-08-27T08:16:35Z</time>
      </trkpt>
      <trkpt lat="50.33694" lon="3.7746">
        <ele>113.57</ele>
        <time>2015-08-27T08:18:03Z</time>
      </trkpt>
      <trkpt lat="50.33625" lon="3.77462">
        <ele>137.61</ele>
        <time>2015-08-27T08:19:19Z</time>
      </trkpt>
      <trkpt lat="50.3353" lon="3.77497">
        <ele>140.49</ele>
        <time>2015-08-27T08:20:41Z</time>
      </trkpt>
      <trkpt lat="50.3344" lon="3.77471">
        <ele>126.07</ele>
        <time>2015-08-27T08:21:59Z</time>
      </trkpt>
      <trkpt lat="50.33362" lon="3.77497">
        <ele>124.63</ele>
        <time>2015-08-27T08:23:08Z</time>
      </trkpt>
      <trkpt lat="50.33289" lon="3.77453">
        <ele>115.01</ele>
        <time>2015-08-27T08:24:20Z</time>
      </trkpt>
      <trkpt lat="50.33229" lon="3.77332">
        <ele>111.17</ele>
        <time>2015-08-27T08:25:43Z</time>
      </trkpt>
      <trkpt lat="50.33177" lon="3.77223">
        <ele>110.69</ele>
        <time>2015-08-27T08:27:00Z</time>
      </trkpt>
      <trkpt lat="50.33122" lon="3.77119">
        <ele>102.04</ele>
        <time>2015-08-27T08:28:13Z</time>
      </trkpt>
      <trkpt lat="50.33073" lon="3.77015">
        <ele>100.6</ele>
        <time>2015-08-27T08:29:27Z</time>
      </trkpt>
      <trkpt lat="50.33023" lon="3.76941">
        <ele>96.75</ele>
        <time>2015-08-27T08:30:58Z</time>
      </trkpt>
      <trkpt lat="50.32927" lon="3.76964">
        <ele>94.35</ele>
        <time>2015-08-27T08:34:26Z</time>
      </trkpt>
      <trkpt lat="50.32876" lon="3.76972">
        <ele>92.9</ele>
        <time>2015-08-27T08:38:14Z</time>
      </trkpt>
      <trkpt lat="50.32919" lon="3.76852">
        <ele>88.1</ele>
        <time>2015-08-27T08:40:00Z</time>
      </trkpt>
      <trkpt lat="50.32996" lon="3.76805">
        <ele>88.1</ele>
        <time>2015-08-27T08:41:43Z</time>
      </trkpt>
      <trkpt lat="50.33069" lon="3.76705">
        <ele>89.54</ele>
        <time>2015-08-27T08:43:23Z</time>
      </trkpt>
      <trkpt lat="50.33117" lon="3.76552">
        <ele>84.25</ele>
        <time>2015-08-27T08:45:02Z</time>
      </trkpt>
      <trkpt lat="50.33105" lon="3.76389">
        <ele>89.06</ele>
        <time>2015-08-27T08:46:42Z</time>
      </trkpt>
      <trkpt lat="50.33073" lon="3.76251">
        <ele>82.33</ele>
        <time>2015-08-27T08:48:40Z</time>
      </trkpt>
      <trkpt lat="50.33083" lon="3.76069">
        <ele>88.58</ele>
        <time>2015-08-27T08:50:08Z</time>
      </trkpt>
      <trkpt lat="50.33132" lon="3.75906">
        <ele>90.02</ele>
        <time>2015-08-27T08:51:44Z</time>
      </trkpt>
      <trkpt lat="50.33156" lon="3.75758">
        <ele>90.02</ele>
        <time>2015-08-27T08:53:19Z</time>
      </trkpt>
      <trkpt lat="50.33148" lon="3.7562">
        <ele>87.14</ele>
        <time>2015-08-27T08:57:04Z</time>
      </trkpt>
      <trkpt lat="50.33066" lon="3.75493">
        <ele>117.9</ele>
        <time>2015-08-27T09:03:15Z</time>
      </trkpt>
      <trkpt lat="50.33108" lon="3.75318">
        <ele>108.29</ele>
        <time>2015-08-27T09:09:11Z</time>
      </trkpt>
      <trkpt lat="50.33158" lon="3.75168">
        <ele>66.95</ele>
        <time>2015-08-27T09:11:40Z</time>
      </trkpt>
      <trkpt lat="50.33312" lon="3.75128">
        <ele>66.95</ele>
        <time>2015-08-27T09:16:18Z</time>
      </trkpt>
      <trkpt lat="50.33312" lon="3.74905">
        <ele>70.79</ele>
        <time>2015-08-27T09:19:20Z</time>
      </trkpt>
      <trkpt lat="50.33294" lon="3.74696">
        <ele>74.16</ele>
        <time>2015-08-27T09:22:10Z</time>
      </trkpt>
      <trkpt lat="50.33202" lon="3.74714">
        <ele>78</ele>
        <time>2015-08-27T09:24:17Z</time>
      </trkpt>
      <trkpt lat="50.33305" lon="3.74593">
        <ele>62.14</ele>
        <time>2015-08-27T09:28:25Z</time>
      </trkpt>
      <trkpt lat="50.33289" lon="3.74425">
        <ele>60.22</ele>
        <time>2015-08-27T09:31:01Z</time>
      </trkpt>
      <trkpt lat="50.33298" lon="3.74167">
        <ele>22.25</ele>
        <time>2015-08-27T09:33:35Z</time>
      </trkpt>
      <trkpt lat="50.3338" lon="3.73893">
        <ele>15.04</ele>
        <time>2015-08-27T09:37:08Z</time>
      </trkpt>
      <trkpt lat="50.33519" lon="3.73785">
        <ele>39.55</ele>
        <time>2015-08-27T09:39:54Z</time>
      </trkpt>
      <trkpt lat="50.33613" lon="3.73803">
        <ele>62.62</ele>
        <time>2015-08-27T09:41:56Z</time>
      </trkpt>
      <trkpt lat="50.33607" lon="3.7391">
        <ele>61.66</ele>
        <time>2015-08-27T09:43:51Z</time>
      </trkpt>
      <trkpt lat="50.33564" lon="3.74042">
        <ele>77.04</ele>
        <time>2015-08-27T09:46:22Z</time>
      </trkpt>
      <trkpt lat="50.33614" lon="3.74202">
        <ele>97.71</ele>
        <time>2015-08-27T09:48:35Z</time>
      </trkpt>
      <trkpt lat="50.3361" lon="3.74305">
        <ele>103.48</ele>
        <time>2015-08-27T09:50:09Z</time>
      </trkpt>
    </trkseg>
  </trk>
</gpx>